CQH5521 ZSCN-ZUDJ
Flight info
| Callsign | CQH5521 |
|---|---|
| Flight time | 1h 29m |
| Altitude | 34100 |
| Route | BIRIR H165 P709 |
| Aircraft | A20N/M-SDE3FGHIRWY/LB1 |
Departure
| Time | 2026-04-11 10:58 |
|---|---|
| Airport | Nanchang Changbei International Airport (ZSCN) |
Arrival
| Time | 2026-04-11 12:27 |
|---|---|
| Airport | Tongren Dejiang Airport (Under Construction) (ZUDJ) |
| Time | Latitude | Longitude | Altitude | Speed | Heading |
|---|---|---|---|---|---|
| 2026-04-11 10:39 | 28.87326 | 115.91033 | 130 ft | 0 kts | 113° |
| 2026-04-11 10:43 | 28.87322 | 115.91045 | 130 ft | 2 kts | 113° |
| 2026-04-11 10:43 | 28.87314 | 115.91065 | 130 ft | 3 kts | 113° |
| 2026-04-11 10:44 | 28.87312 | 115.91070 | 130 ft | 4 kts | 112° |
| 2026-04-11 10:44 | 28.87312 | 115.91071 | 130 ft | 0 kts | 112° |
| 2026-04-11 10:47 | 28.87313 | 115.91068 | 130 ft | 2 kts | 113° |
| 2026-04-11 10:47 | 28.87319 | 115.91052 | 130 ft | 2 kts | 112° |
| 2026-04-11 10:48 | 28.87325 | 115.91037 | 130 ft | 2 kts | 113° |
| 2026-04-11 10:48 | 28.87330 | 115.91021 | 130 ft | 2 kts | 112° |
| 2026-04-11 10:48 | 28.87336 | 115.91006 | 130 ft | 2 kts | 112° |
| 2026-04-11 10:48 | 28.87343 | 115.90990 | 131 ft | 2 kts | 136° |
| 2026-04-11 10:49 | 28.87356 | 115.90982 | 130 ft | 2 kts | 176° |
| 2026-04-11 10:49 | 28.87365 | 115.90984 | 129 ft | 0 kts | 200° |
| 2026-04-11 10:49 | 28.87372 | 115.90987 | 129 ft | 0 kts | 204° |
| 2026-04-11 10:51 | 28.87316 | 115.90952 | 132 ft | 8 kts | 241° |
| 2026-04-11 10:51 | 28.87309 | 115.90892 | 134 ft | 6 kts | 259° |
| 2026-04-11 10:51 | 28.87282 | 115.90858 | 136 ft | 5 kts | 207° |
| 2026-04-11 10:52 | 28.87255 | 115.90842 | 137 ft | 3 kts | 206° |
| 2026-04-11 10:52 | 28.87234 | 115.90832 | 138 ft | 4 kts | 203° |
| 2026-04-11 10:52 | 28.87192 | 115.90812 | 140 ft | 8 kts | 201° |
| 2026-04-11 10:52 | 28.87118 | 115.90777 | 141 ft | 14 kts | 203° |
| 2026-04-11 10:53 | 28.86999 | 115.90722 | 144 ft | 21 kts | 203° |
| 2026-04-11 10:53 | 28.86835 | 115.90640 | 147 ft | 29 kts | 203° |
| 2026-04-11 10:53 | 28.86619 | 115.90536 | 147 ft | 37 kts | 205° |
| 2026-04-11 10:53 | 28.86358 | 115.90410 | 143 ft | 41 kts | 203° |
| 2026-04-11 10:54 | 28.86095 | 115.90282 | 138 ft | 40 kts | 203° |
| 2026-04-11 10:54 | 28.85845 | 115.90160 | 134 ft | 38 kts | 203° |
| 2026-04-11 10:54 | 28.85608 | 115.90049 | 131 ft | 34 kts | 203° |
| 2026-04-11 10:54 | 28.85428 | 115.89959 | 129 ft | 27 kts | 202° |
| 2026-04-11 10:55 | 28.85258 | 115.89877 | 128 ft | 25 kts | 203° |
| 2026-04-11 10:55 | 28.85092 | 115.89796 | 126 ft | 25 kts | 203° |
| 2026-04-11 10:55 | 28.85067 | 115.89708 | 124 ft | 9 kts | 301° |
| 2026-04-11 10:55 | 28.85091 | 115.89623 | 122 ft | 12 kts | 288° |
| 2026-04-11 10:56 | 28.85148 | 115.89627 | 123 ft | 9 kts | 25° |
| 2026-04-11 10:56 | 28.85204 | 115.89652 | 124 ft | 8 kts | 17° |
| 2026-04-11 10:56 | 28.85259 | 115.89671 | 125 ft | 8 kts | 17° |
| 2026-04-11 10:56 | 28.85313 | 115.89691 | 125 ft | 8 kts | 21° |
| 2026-04-11 10:57 | 28.85368 | 115.89717 | 126 ft | 8 kts | 22° |
| 2026-04-11 10:57 | 28.85516 | 115.89790 | 127 ft | 55 kts | 22° |
| 2026-04-11 10:57 | 28.86094 | 115.90070 | 138 ft | 122 kts | 22° |
| 2026-04-11 10:57 | 28.87054 | 115.90539 | 227 ft | 167 kts | 23° |
| 2026-04-11 10:58 | 28.88098 | 115.91071 | 961 ft | 162 kts | 22° |
| 2026-04-11 10:58 | 28.89112 | 115.91554 | 1750 ft | 159 kts | 22° |
| 2026-04-11 10:58 | 28.90133 | 115.92039 | 2356 ft | 167 kts | 22° |
| 2026-04-11 10:58 | 28.91271 | 115.92580 | 2833 ft | 183 kts | 23° |
| 2026-04-11 10:59 | 28.92498 | 115.93170 | 3312 ft | 200 kts | 22° |
| 2026-04-11 10:59 | 28.93820 | 115.93816 | 3813 ft | 216 kts | 22° |
| 2026-04-11 10:59 | 28.95200 | 115.94491 | 4568 ft | 221 kts | 20° |
| 2026-04-11 10:59 | 28.96642 | 115.95200 | 5261 ft | 229 kts | 20° |
| 2026-04-11 11:00 | 28.98139 | 115.95927 | 5884 ft | 239 kts | 19° |
| 2026-04-11 11:00 | 28.99684 | 115.96677 | 6502 ft | 248 kts | 18° |
| 2026-04-11 11:00 | 29.01331 | 115.97294 | 7144 ft | 248 kts | 357° |
| 2026-04-11 11:00 | 29.02991 | 115.97015 | 7875 ft | 235 kts | 328° |
| 2026-04-11 11:01 | 29.04285 | 115.95999 | 8593 ft | 225 kts | 304° |
| 2026-04-11 11:01 | 29.05099 | 115.94508 | 9213 ft | 222 kts | 284° |
| 2026-04-11 11:01 | 29.05330 | 115.92793 | 9940 ft | 219 kts | 265° |
| 2026-04-11 11:01 | 29.04982 | 115.91119 | 10679 ft | 220 kts | 246° |
| 2026-04-11 11:02 | 29.04090 | 115.89701 | 11398 ft | 226 kts | 227° |
| 2026-04-11 11:02 | 29.02759 | 115.88670 | 12098 ft | 234 kts | 216° |
| 2026-04-11 11:02 | 29.01257 | 115.87917 | 12817 ft | 241 kts | 209° |
| 2026-04-11 11:02 | 28.99682 | 115.87270 | 13521 ft | 242 kts | 208° |
| 2026-04-11 11:03 | 28.98089 | 115.86612 | 14253 ft | 242 kts | 209° |
| 2026-04-11 11:03 | 28.96536 | 115.85956 | 14954 ft | 241 kts | 209° |
| 2026-04-11 11:03 | 28.94983 | 115.85256 | 15625 ft | 240 kts | 210° |
| 2026-04-11 11:03 | 28.93402 | 115.84487 | 16026 ft | 252 kts | 210° |
| 2026-04-11 11:04 | 28.91735 | 115.83675 | 16302 ft | 268 kts | 210° |
| 2026-04-11 11:04 | 28.89956 | 115.82809 | 16556 ft | 284 kts | 209° |
| 2026-04-11 11:04 | 28.88077 | 115.81898 | 16814 ft | 299 kts | 208° |
| 2026-04-11 11:04 | 28.86112 | 115.80950 | 17053 ft | 313 kts | 209° |
| 2026-04-11 11:05 | 28.84055 | 115.79956 | 17300 ft | 327 kts | 208° |
| 2026-04-11 11:05 | 28.81899 | 115.78912 | 17522 ft | 340 kts | 208° |
| 2026-04-11 11:05 | 28.79670 | 115.77835 | 17735 ft | 352 kts | 208° |
| 2026-04-11 11:05 | 28.77381 | 115.76733 | 18129 ft | 358 kts | 208° |
| 2026-04-11 11:06 | 28.75085 | 115.75630 | 18574 ft | 361 kts | 208° |
| 2026-04-11 11:06 | 28.72749 | 115.74506 | 19024 ft | 364 kts | 208° |
| 2026-04-11 11:06 | 28.70394 | 115.73375 | 19460 ft | 367 kts | 208° |
| 2026-04-11 11:06 | 28.68017 | 115.72226 | 19922 ft | 369 kts | 208° |
| 2026-04-11 11:07 | 28.65650 | 115.71085 | 20339 ft | 372 kts | 208° |
| 2026-04-11 11:07 | 28.63282 | 115.69944 | 20699 ft | 376 kts | 209° |
| 2026-04-11 11:07 | 28.60921 | 115.68805 | 21059 ft | 379 kts | 208° |
| 2026-04-11 11:07 | 28.58484 | 115.67632 | 21469 ft | 382 kts | 209° |
| 2026-04-11 11:08 | 28.56056 | 115.66462 | 21856 ft | 384 kts | 209° |
| 2026-04-11 11:08 | 28.53569 | 115.65259 | 22238 ft | 386 kts | 210° |
| 2026-04-11 11:08 | 28.51321 | 115.63711 | 22589 ft | 379 kts | 224° |
| 2026-04-11 11:08 | 28.49529 | 115.61521 | 22976 ft | 376 kts | 237° |
| 2026-04-11 11:09 | 28.48304 | 115.58909 | 23354 ft | 377 kts | 249° |
| 2026-04-11 11:09 | 28.47672 | 115.56020 | 23721 ft | 379 kts | 259° |
| 2026-04-11 11:09 | 28.47247 | 115.53091 | 24115 ft | 381 kts | 259° |
| 2026-04-11 11:09 | 28.46810 | 115.50107 | 24273 ft | 388 kts | 259° |
| 2026-04-11 11:10 | 28.46368 | 115.47041 | 24481 ft | 393 kts | 259° |
| 2026-04-11 11:10 | 28.45939 | 115.43992 | 24772 ft | 395 kts | 259° |
| 2026-04-11 11:10 | 28.45503 | 115.40893 | 25076 ft | 397 kts | 259° |
| 2026-04-11 11:10 | 28.45075 | 115.37816 | 25397 ft | 398 kts | 259° |
| 2026-04-11 11:11 | 28.44640 | 115.34721 | 25697 ft | 399 kts | 258° |
| 2026-04-11 11:11 | 28.44201 | 115.31602 | 25988 ft | 400 kts | 259° |
| 2026-04-11 11:11 | 28.43760 | 115.28494 | 26238 ft | 402 kts | 259° |
| 2026-04-11 11:11 | 28.43318 | 115.25352 | 26549 ft | 402 kts | 259° |
| 2026-04-11 11:12 | 28.42875 | 115.22243 | 26882 ft | 401 kts | 259° |
| 2026-04-11 11:12 | 28.42439 | 115.19146 | 27221 ft | 400 kts | 259° |
| 2026-04-11 11:12 | 28.42000 | 115.16042 | 27618 ft | 397 kts | 259° |
| 2026-04-11 11:12 | 28.41557 | 115.12929 | 27913 ft | 397 kts | 259° |
| 2026-04-11 11:13 | 28.41122 | 115.09877 | 28186 ft | 396 kts | 258° |
| 2026-04-11 11:13 | 28.40682 | 115.06794 | 28579 ft | 392 kts | 259° |
| 2026-04-11 11:13 | 28.40247 | 115.03749 | 28964 ft | 389 kts | 259° |
| 2026-04-11 11:13 | 28.39819 | 115.00747 | 29249 ft | 389 kts | 259° |
| 2026-04-11 11:14 | 28.39379 | 114.97694 | 29468 ft | 390 kts | 259° |
| 2026-04-11 11:14 | 28.38949 | 114.94679 | 29739 ft | 390 kts | 259° |
| 2026-04-11 11:14 | 28.38513 | 114.91657 | 30020 ft | 389 kts | 259° |
| 2026-04-11 11:14 | 28.38079 | 114.88633 | 30272 ft | 388 kts | 259° |
| 2026-04-11 11:15 | 28.37645 | 114.85623 | 30532 ft | 388 kts | 259° |
| 2026-04-11 11:15 | 28.37207 | 114.82597 | 30758 ft | 388 kts | 259° |
| 2026-04-11 11:15 | 28.36772 | 114.79588 | 30988 ft | 388 kts | 259° |
| 2026-04-11 11:15 | 28.36335 | 114.76574 | 31252 ft | 387 kts | 259° |
| 2026-04-11 11:16 | 28.35903 | 114.73589 | 31529 ft | 386 kts | 259° |
| 2026-04-11 11:16 | 28.35470 | 114.70599 | 31757 ft | 385 kts | 259° |
| 2026-04-11 11:16 | 28.35030 | 114.67577 | 31985 ft | 385 kts | 259° |
| 2026-04-11 11:16 | 28.34596 | 114.64600 | 32207 ft | 385 kts | 259° |
| 2026-04-11 11:17 | 28.34156 | 114.61601 | 32411 ft | 386 kts | 259° |
| 2026-04-11 11:17 | 28.33281 | 114.55599 | 32656 ft | 389 kts | 259° |
| 2026-04-11 11:17 | 28.32838 | 114.52590 | 32890 ft | 389 kts | 259° |
| 2026-04-11 11:18 | 28.32391 | 114.49544 | 33065 ft | 390 kts | 259° |
| 2026-04-11 11:18 | 28.31948 | 114.46510 | 33173 ft | 392 kts | 259° |
| 2026-04-11 11:18 | 28.31500 | 114.43474 | 33341 ft | 393 kts | 259° |
| 2026-04-11 11:18 | 28.31050 | 114.40427 | 33523 ft | 393 kts | 259° |
| 2026-04-11 11:19 | 28.30612 | 114.37389 | 33696 ft | 393 kts | 261° |
| 2026-04-11 11:19 | 28.30252 | 114.34326 | 33875 ft | 393 kts | 261° |
| 2026-04-11 11:19 | 28.29893 | 114.31232 | 33906 ft | 394 kts | 261° |
| 2026-04-11 11:20 | 28.29184 | 114.25117 | 33908 ft | 392 kts | 261° |
| 2026-04-11 11:20 | 28.28472 | 114.19013 | 33918 ft | 392 kts | 261° |
| 2026-04-11 11:21 | 28.27757 | 114.12885 | 33918 ft | 392 kts | 261° |
| 2026-04-11 11:21 | 28.27034 | 114.06731 | 33902 ft | 393 kts | 261° |
| 2026-04-11 11:22 | 28.26318 | 114.00634 | 33885 ft | 392 kts | 261° |
| 2026-04-11 11:22 | 28.25599 | 113.94514 | 33885 ft | 392 kts | 261° |
| 2026-04-11 11:23 | 28.24872 | 113.88386 | 33901 ft | 393 kts | 261° |
| 2026-04-11 11:23 | 28.24144 | 113.82266 | 33899 ft | 393 kts | 261° |
| 2026-04-11 11:24 | 28.23410 | 113.76117 | 33907 ft | 393 kts | 261° |
| 2026-04-11 11:24 | 28.22677 | 113.70007 | 33892 ft | 394 kts | 261° |
| 2026-04-11 11:25 | 28.22058 | 113.64902 | 33907 ft | 395 kts | 261° |
| 2026-04-11 11:25 | 28.21185 | 113.57717 | 33900 ft | 393 kts | 261° |
| 2026-04-11 11:26 | 28.20436 | 113.51592 | 33866 ft | 395 kts | 261° |
| 2026-04-11 11:26 | 28.19677 | 113.45407 | 33861 ft | 395 kts | 261° |
| 2026-04-11 11:27 | 28.18927 | 113.39269 | 33864 ft | 396 kts | 261° |
| 2026-04-11 11:27 | 28.18169 | 113.33074 | 33846 ft | 394 kts | 260° |
| 2026-04-11 11:28 | 28.17415 | 113.26952 | 33856 ft | 395 kts | 260° |
| 2026-04-11 11:28 | 28.16654 | 113.20797 | 33847 ft | 393 kts | 261° |
| 2026-04-11 11:29 | 28.15519 | 113.11642 | 33844 ft | 394 kts | 260° |
| 2026-04-11 11:29 | 28.14754 | 113.05509 | 33851 ft | 394 kts | 260° |
| 2026-04-11 11:30 | 28.14061 | 112.99357 | 33855 ft | 394 kts | 263° |
| 2026-04-11 11:30 | 28.13807 | 112.93147 | 33872 ft | 397 kts | 267° |
| 2026-04-11 11:31 | 28.14025 | 112.86908 | 33884 ft | 399 kts | 270° |
| 2026-04-11 11:31 | 28.14381 | 112.80623 | 33872 ft | 399 kts | 270° |
| 2026-04-11 11:32 | 28.14735 | 112.74371 | 33899 ft | 399 kts | 270° |
| 2026-04-11 11:32 | 28.15091 | 112.68134 | 33915 ft | 397 kts | 270° |
| 2026-04-11 11:33 | 28.15446 | 112.61889 | 33914 ft | 399 kts | 270° |
| 2026-04-11 11:33 | 28.15798 | 112.55637 | 33919 ft | 396 kts | 270° |
| 2026-04-11 11:34 | 28.16147 | 112.49425 | 33903 ft | 397 kts | 270° |
| 2026-04-11 11:34 | 28.16491 | 112.43223 | 33901 ft | 397 kts | 270° |
| 2026-04-11 11:35 | 28.16832 | 112.37022 | 33913 ft | 395 kts | 270° |
| 2026-04-11 11:35 | 28.17169 | 112.30829 | 33934 ft | 395 kts | 270° |
| 2026-04-11 11:36 | 28.16984 | 112.24674 | 33923 ft | 391 kts | 262° |
| 2026-04-11 11:36 | 28.16266 | 112.18587 | 33925 ft | 391 kts | 259° |
| 2026-04-11 11:37 | 28.15110 | 112.12601 | 33916 ft | 390 kts | 255° |
| 2026-04-11 11:37 | 28.13600 | 112.06674 | 33911 ft | 389 kts | 254° |
| 2026-04-11 11:38 | 28.12078 | 112.00835 | 33944 ft | 390 kts | 253° |
| 2026-04-11 11:38 | 28.10519 | 111.94909 | 33906 ft | 391 kts | 254° |
| 2026-04-11 11:39 | 28.08968 | 111.89037 | 33922 ft | 391 kts | 254° |
| 2026-04-11 11:39 | 28.07409 | 111.83149 | 33942 ft | 392 kts | 254° |
| 2026-04-11 11:40 | 28.05841 | 111.77228 | 33919 ft | 393 kts | 253° |
| 2026-04-11 11:40 | 28.04276 | 111.71349 | 33955 ft | 393 kts | 253° |
| 2026-04-11 11:41 | 28.02696 | 111.65419 | 33964 ft | 392 kts | 253° |
| 2026-04-11 11:41 | 28.01125 | 111.59523 | 33952 ft | 394 kts | 253° |
| 2026-04-11 11:42 | 27.99537 | 111.53587 | 33925 ft | 396 kts | 253° |
| 2026-04-11 11:42 | 27.98061 | 111.47599 | 33935 ft | 395 kts | 255° |
| 2026-04-11 11:43 | 27.96645 | 111.41618 | 33951 ft | 394 kts | 255° |
| 2026-04-11 11:43 | 27.95216 | 111.35635 | 33939 ft | 394 kts | 255° |
| 2026-04-11 11:44 | 27.93781 | 111.29657 | 33929 ft | 395 kts | 255° |
| 2026-04-11 11:44 | 27.92341 | 111.23659 | 33898 ft | 395 kts | 254° |
| 2026-04-11 11:45 | 27.90904 | 111.17703 | 33928 ft | 393 kts | 254° |
| 2026-04-11 11:45 | 27.89462 | 111.11739 | 33925 ft | 395 kts | 254° |
| 2026-04-11 11:46 | 27.88015 | 111.05762 | 33931 ft | 395 kts | 254° |
| 2026-04-11 11:46 | 27.86565 | 110.99784 | 33931 ft | 396 kts | 254° |
| 2026-04-11 11:47 | 27.85108 | 110.93803 | 33925 ft | 396 kts | 254° |
| 2026-04-11 11:47 | 27.83649 | 110.87816 | 33933 ft | 396 kts | 255° |
| 2026-04-11 11:48 | 27.82195 | 110.81860 | 33930 ft | 395 kts | 254° |
| 2026-04-11 11:48 | 27.80725 | 110.75857 | 33927 ft | 398 kts | 254° |
| 2026-04-11 11:49 | 27.79253 | 110.69853 | 33928 ft | 397 kts | 254° |
| 2026-04-11 11:49 | 27.77782 | 110.63866 | 33926 ft | 396 kts | 254° |
| 2026-04-11 11:50 | 27.76318 | 110.57916 | 33912 ft | 396 kts | 254° |
| 2026-04-11 11:50 | 27.74847 | 110.51947 | 33905 ft | 396 kts | 254° |
| 2026-04-11 11:51 | 27.73370 | 110.45976 | 33907 ft | 396 kts | 254° |
| 2026-04-11 11:51 | 27.71888 | 110.39999 | 33913 ft | 396 kts | 254° |
| 2026-04-11 11:52 | 27.70407 | 110.34035 | 33928 ft | 397 kts | 253° |
| 2026-04-11 11:52 | 27.68909 | 110.28024 | 33925 ft | 397 kts | 254° |
| 2026-04-11 11:53 | 27.67426 | 110.22063 | 33923 ft | 398 kts | 254° |
| 2026-04-11 11:53 | 27.65929 | 110.16058 | 33926 ft | 397 kts | 254° |
| 2026-04-11 11:54 | 27.64429 | 110.10069 | 33905 ft | 398 kts | 254° |
| 2026-04-11 11:54 | 27.62932 | 110.04085 | 33910 ft | 398 kts | 253° |
| 2026-04-11 11:55 | 27.61422 | 109.98072 | 33890 ft | 399 kts | 253° |
| 2026-04-11 11:55 | 27.59916 | 109.92085 | 33914 ft | 398 kts | 254° |
| 2026-04-11 11:56 | 27.58401 | 109.86080 | 33872 ft | 399 kts | 254° |
| 2026-04-11 11:56 | 27.56883 | 109.80088 | 33887 ft | 398 kts | 253° |
| 2026-04-11 11:57 | 27.55355 | 109.74091 | 33889 ft | 399 kts | 254° |
| 2026-04-11 11:57 | 27.53712 | 109.68152 | 33888 ft | 400 kts | 251° |
| 2026-04-11 11:58 | 27.51883 | 109.62213 | 33899 ft | 401 kts | 251° |
| 2026-04-11 11:58 | 27.50047 | 109.56310 | 33916 ft | 400 kts | 251° |
| 2026-04-11 11:59 | 27.48206 | 109.50404 | 33963 ft | 400 kts | 251° |
| 2026-04-11 11:59 | 27.46357 | 109.44486 | 33937 ft | 401 kts | 251° |
| 2026-04-11 12:00 | 27.44539 | 109.38590 | 33945 ft | 401 kts | 251° |
| 2026-04-11 12:00 | 27.42715 | 109.32659 | 33927 ft | 401 kts | 251° |
| 2026-04-11 12:01 | 27.40883 | 109.26732 | 33902 ft | 401 kts | 251° |
| 2026-04-11 12:01 | 27.39054 | 109.20825 | 33906 ft | 402 kts | 251° |
| 2026-04-11 12:02 | 27.37220 | 109.14906 | 33943 ft | 402 kts | 251° |
| 2026-04-11 12:02 | 27.35376 | 109.08965 | 33920 ft | 400 kts | 251° |
| 2026-04-11 12:03 | 27.33547 | 109.03089 | 33710 ft | 400 kts | 251° |
| 2026-04-11 12:03 | 27.32626 | 109.00133 | 33409 ft | 398 kts | 251° |
| 2026-04-11 12:03 | 27.31723 | 108.97239 | 33168 ft | 397 kts | 251° |
| 2026-04-11 12:04 | 27.30817 | 108.94331 | 32860 ft | 395 kts | 251° |
| 2026-04-11 12:04 | 27.29906 | 108.91415 | 32580 ft | 394 kts | 251° |
| 2026-04-11 12:04 | 27.28998 | 108.88504 | 32297 ft | 395 kts | 251° |
| 2026-04-11 12:04 | 27.28092 | 108.85608 | 32054 ft | 395 kts | 251° |
| 2026-04-11 12:05 | 27.27183 | 108.82700 | 31806 ft | 395 kts | 251° |
| 2026-04-11 12:05 | 27.26270 | 108.79789 | 31540 ft | 396 kts | 251° |
| 2026-04-11 12:05 | 27.25362 | 108.76893 | 31295 ft | 396 kts | 251° |
| 2026-04-11 12:05 | 27.24445 | 108.73967 | 31051 ft | 397 kts | 251° |
| 2026-04-11 12:06 | 27.23536 | 108.71067 | 30781 ft | 398 kts | 251° |
| 2026-04-11 12:06 | 27.22603 | 108.68099 | 30529 ft | 400 kts | 251° |
| 2026-04-11 12:06 | 27.21679 | 108.65166 | 30265 ft | 400 kts | 251° |
| 2026-04-11 12:06 | 27.20751 | 108.62216 | 30002 ft | 400 kts | 251° |
| 2026-04-11 12:07 | 27.19831 | 108.59293 | 29747 ft | 400 kts | 251° |
| 2026-04-11 12:07 | 27.18901 | 108.56353 | 29485 ft | 399 kts | 251° |
| 2026-04-11 12:07 | 27.17982 | 108.53442 | 29251 ft | 400 kts | 251° |
| 2026-04-11 12:07 | 27.17049 | 108.50489 | 29002 ft | 401 kts | 251° |
| 2026-04-11 12:08 | 27.16113 | 108.47522 | 28739 ft | 401 kts | 251° |
| 2026-04-11 12:08 | 27.15186 | 108.44597 | 28496 ft | 402 kts | 251° |
| 2026-04-11 12:08 | 27.14250 | 108.41639 | 28239 ft | 401 kts | 251° |
| 2026-04-11 12:08 | 27.13320 | 108.38702 | 28006 ft | 402 kts | 251° |
| 2026-04-11 12:09 | 27.12378 | 108.35725 | 27589 ft | 404 kts | 251° |
| 2026-04-11 12:09 | 27.11447 | 108.32793 | 26856 ft | 406 kts | 251° |
| 2026-04-11 12:09 | 27.10495 | 108.29797 | 25952 ft | 407 kts | 251° |
| 2026-04-11 12:09 | 27.09556 | 108.26843 | 25184 ft | 404 kts | 251° |
| 2026-04-11 12:10 | 27.08617 | 108.23891 | 24589 ft | 399 kts | 251° |
| 2026-04-11 12:10 | 27.07685 | 108.20974 | 23929 ft | 394 kts | 251° |
| 2026-04-11 12:10 | 27.06777 | 108.18114 | 23329 ft | 389 kts | 251° |
| 2026-04-11 12:10 | 27.05883 | 108.15310 | 22746 ft | 385 kts | 251° |
| 2026-04-11 12:11 | 27.04991 | 108.12516 | 22168 ft | 381 kts | 251° |
| 2026-04-11 12:11 | 27.04090 | 108.09705 | 21621 ft | 379 kts | 252° |
| 2026-04-11 12:11 | 27.03211 | 108.06952 | 21044 ft | 379 kts | 252° |
| 2026-04-11 12:11 | 27.02403 | 108.04171 | 20435 ft | 377 kts | 258° |
| 2026-04-11 12:12 | 27.02239 | 108.01266 | 19848 ft | 377 kts | 274° |
| 2026-04-11 12:12 | 27.02824 | 107.98390 | 19284 ft | 379 kts | 289° |
| 2026-04-11 12:12 | 27.04095 | 107.95821 | 18709 ft | 382 kts | 304° |
| 2026-04-11 12:12 | 27.05984 | 107.93722 | 18235 ft | 386 kts | 320° |
| 2026-04-11 12:13 | 27.08355 | 107.92297 | 17740 ft | 390 kts | 337° |
| 2026-04-11 12:13 | 27.10996 | 107.91698 | 17253 ft | 394 kts | 354° |
| 2026-04-11 12:13 | 27.13725 | 107.91992 | 16784 ft | 399 kts | 11° |
| 2026-04-11 12:13 | 27.16341 | 107.93224 | 16307 ft | 417 kts | 29° |
| 2026-04-11 12:14 | 27.18751 | 107.95077 | 15869 ft | 424 kts | 31° |
| 2026-04-11 12:14 | 27.21346 | 107.96595 | 15387 ft | 418 kts | 16° |
| 2026-04-11 12:14 | 27.22275 | 107.96916 | 15214 ft | 415 kts | 11° |
| 2026-04-11 12:15 | 27.32025 | 107.99104 | 13043 ft | 411 kts | 6° |
| 2026-04-11 12:15 | 27.34766 | 107.99667 | 12442 ft | 399 kts | 7° |
| 2026-04-11 12:15 | 27.37504 | 108.00227 | 11831 ft | 395 kts | 7° |
| 2026-04-11 12:16 | 27.40207 | 108.00774 | 11300 ft | 391 kts | 7° |
| 2026-04-11 12:16 | 27.42844 | 108.01316 | 10943 ft | 382 kts | 8° |
| 2026-04-11 12:16 | 27.45457 | 108.01852 | 10706 ft | 370 kts | 8° |
| 2026-04-11 12:16 | 27.47955 | 108.02369 | 10500 ft | 359 kts | 8° |
| 2026-04-11 12:17 | 27.50370 | 108.02869 | 10267 ft | 350 kts | 7° |
| 2026-04-11 12:17 | 27.52742 | 108.03358 | 10102 ft | 338 kts | 7° |
| 2026-04-11 12:17 | 27.55016 | 108.03826 | 9989 ft | 325 kts | 7° |
| 2026-04-11 12:17 | 27.57208 | 108.04276 | 9875 ft | 313 kts | 8° |
| 2026-04-11 12:18 | 27.59347 | 108.04717 | 9620 ft | 308 kts | 7° |
| 2026-04-11 12:18 | 27.61463 | 108.05148 | 9281 ft | 307 kts | 8° |
| 2026-04-11 12:18 | 27.65601 | 108.05999 | 8844 ft | 293 kts | 9° |
| 2026-04-11 12:19 | 27.67557 | 108.06403 | 8763 ft | 280 kts | 8° |
| 2026-04-11 12:19 | 27.69459 | 108.06800 | 8717 ft | 267 kts | 8° |
| 2026-04-11 12:19 | 27.71281 | 108.07175 | 8477 ft | 267 kts | 8° |
| 2026-04-11 12:19 | 27.73110 | 108.07548 | 8174 ft | 266 kts | 9° |
| 2026-04-11 12:20 | 27.74918 | 108.07918 | 7895 ft | 264 kts | 9° |
| 2026-04-11 12:20 | 27.76714 | 108.08288 | 7633 ft | 261 kts | 9° |
| 2026-04-11 12:20 | 27.78497 | 108.08655 | 7367 ft | 257 kts | 10° |
| 2026-04-11 12:20 | 27.80249 | 108.09015 | 7105 ft | 254 kts | 10° |
| 2026-04-11 12:21 | 27.81985 | 108.09382 | 6836 ft | 251 kts | 14° |
| 2026-04-11 12:21 | 27.83614 | 108.10020 | 6660 ft | 243 kts | 26° |
| 2026-04-11 12:21 | 27.85112 | 108.10875 | 6682 ft | 243 kts | 28° |
| 2026-04-11 12:21 | 27.86618 | 108.11781 | 6689 ft | 244 kts | 28° |
| 2026-04-11 12:22 | 27.88128 | 108.12687 | 6415 ft | 245 kts | 28° |
| 2026-04-11 12:22 | 27.89629 | 108.13579 | 6120 ft | 243 kts | 28° |
| 2026-04-11 12:22 | 27.91128 | 108.14435 | 5834 ft | 242 kts | 23° |
| 2026-04-11 12:22 | 27.92739 | 108.14880 | 5664 ft | 235 kts | 7° |
| 2026-04-11 12:23 | 27.94373 | 108.15025 | 5694 ft | 232 kts | 5° |
| 2026-04-11 12:23 | 27.95991 | 108.15138 | 5718 ft | 232 kts | 5° |
| 2026-04-11 12:23 | 27.97578 | 108.15250 | 5723 ft | 220 kts | 5° |
| 2026-04-11 12:23 | 27.99062 | 108.15358 | 5738 ft | 213 kts | 5° |
| 2026-04-11 12:24 | 28.00555 | 108.15474 | 5730 ft | 213 kts | 5° |
| 2026-04-11 12:24 | 28.02023 | 108.15589 | 5535 ft | 211 kts | 5° |
| 2026-04-11 12:24 | 28.03151 | 108.15678 | 5357 ft | 206 kts | 5° |
| 2026-04-11 12:24 | 28.03156 | 108.15679 | 5327 ft | 206 kts | 5° |
| 2026-04-11 12:25 | 28.04575 | 108.15793 | 4949 ft | 197 kts | 5° |
| 2026-04-11 12:25 | 28.05891 | 108.15897 | 4715 ft | 182 kts | 6° |
| 2026-04-11 12:25 | 28.07113 | 108.15997 | 4484 ft | 169 kts | 7° |
| 2026-04-11 12:25 | 28.08247 | 108.16090 | 4272 ft | 157 kts | 8° |
| 2026-04-11 12:26 | 28.09315 | 108.16175 | 4068 ft | 148 kts | 7° |
| 2026-04-11 12:26 | 28.10317 | 108.16258 | 3914 ft | 144 kts | 6° |
| 2026-04-11 12:26 | 28.11325 | 108.16337 | 3740 ft | 142 kts | 6° |
| 2026-04-11 12:26 | 28.12304 | 108.16420 | 3656 ft | 140 kts | 6° |
| 2026-04-11 12:27 | 28.13213 | 108.16507 | 3624 ft | 110 kts | 2° |
| 2026-04-11 12:27 | 28.13808 | 108.16548 | 3623 ft | 56 kts | 4° |
| 2026-04-11 12:27 | 28.13908 | 108.16467 | 3621 ft | 4 kts | 236° |
| 2026-04-11 12:27 | 28.13910 | 108.16424 | 3621 ft | 6 kts | 276° |
| 2026-04-11 12:28 | 28.13907 | 108.16370 | 3621 ft | 7 kts | 250° |
| 2026-04-11 12:28 | 28.13866 | 108.16341 | 3621 ft | 7 kts | 182° |
| 2026-04-11 12:28 | 28.13808 | 108.16335 | 3621 ft | 8 kts | 184° |
| 2026-04-11 12:28 | 28.13741 | 108.16331 | 3621 ft | 10 kts | 183° |
| 2026-04-11 12:29 | 28.13710 | 108.16322 | 3621 ft | 3 kts | 228° |
| 2026-04-11 12:29 | 28.13701 | 108.16289 | 3621 ft | 5 kts | 264° |
| 2026-04-11 12:29 | 28.13702 | 108.16258 | 3621 ft | 0 kts | 273° |
| 2026-04-11 12:29 | 28.13702 | 108.16253 | 3621 ft | 0 kts | 273° |